Time;durP1;ratioP1;P1;durP2;ratioP2;P2;SDS_P1;SDS_P2;PMS_P1;PMS_P2;Temp;Humidity;BMP_temperature;BMP_pressure;BME280_temperature;BME280_humidity;BME280_pressure;Samples;Min_cycle;Max_cycle;Signal;HPM_P1;HPM_P2
2022/01/07 00:00:16;;;;;;;8.43;2.57;;;5.40;54.70;;;;;;5162127;27;20181;-80
2022/01/07 00:03:01;;;;;;;8.83;2.80;;;5.40;54.20;;;;;;5178343;27;20172;-82
2022/01/07 00:05:34;;;;;;;11.13;2.73;;;5.40;55.30;;;;;;5176399;27;20263;-81
2022/01/07 00:08:04;;;;;;;8.90;3.33;;;5.40;55.40;;;;;;5164320;27;20177;-81
2022/01/07 00:10:29;;;;;;;6.37;2.83;;;5.40;55.60;;;;;;5159661;27;20205;-78
2022/01/07 00:12:56;;;;;;;6.07;2.67;;;5.40;55.60;;;;;;5156120;27;20651;-78
2022/01/07 00:15:22;;;;;;;7.67;2.43;;;5.40;56.50;;;;;;5173553;27;20165;-86
2022/01/07 00:17:58;;;;;;;13.73;3.17;;;5.40;57.10;;;;;;5175894;27;20271;-81
2022/01/07 00:20:29;;;;;;;11.07;2.77;;;5.40;56.80;;;;;;5181264;27;20145;-88
2022/01/07 00:22:57;;;;;;;4.97;2.30;;;5.40;56.50;;;;;;5159473;27;20181;-89
2022/01/07 00:26:01;;;;;;;7.80;2.43;;;5.40;57.00;;;;;;5169431;27;20157;-89
2022/01/07 00:28:27;;;;;;;9.87;3.17;;;5.40;58.10;;;;;;5167869;27;20203;-88
2022/01/07 00:31:22;;;;;;;8.37;3.20;;;5.40;57.80;;;;;;5166211;27;20173;-90
2022/01/07 00:33:51;;;;;;;7.40;3.00;;;5.50;57.60;;;;;;5167524;27;20161;-87
2022/01/07 00:36:17;;;;;;;5.90;2.50;;;5.50;58.30;;;;;;5177578;27;20197;-79
2022/01/07 00:38:43;;;;;;;8.27;2.67;;;5.40;59.40;;;;;;5181446;27;20225;-88
2022/01/07 00:41:10;;;;;;;5.93;2.90;;;5.50;59.50;;;;;;5176084;27;20172;-88
2022/01/07 00:43:38;;;;;;;8.83;2.40;;;5.40;59.90;;;;;;5175314;27;20162;-90
2022/01/07 00:46:10;;;;;;;5.37;2.70;;;5.40;60.20;;;;;;5153467;27;20162;-90
2022/01/07 00:48:36;;;;;;;7.20;2.70;;;5.50;61.00;;;;;;5153945;27;20216;-90
2022/01/07 00:51:01;;;;;;;9.30;3.03;;;5.50;61.10;;;;;;5172311;27;20166;-88
2022/01/07 00:53:27;;;;;;;6.33;2.80;;;5.40;63.60;;;;;;5165258;27;20158;-90
2022/01/07 00:55:53;;;;;;;8.97;3.10;;;5.40;64.70;;;;;;5146170;27;20150;-90
2022/01/07 00:58:18;;;;;;;6.17;2.70;;;5.40;66.00;;;;;;5163185;27;20201;-90
2022/01/07 01:00:44;;;;;;;7.37;3.27;;;5.40;67.40;;;;;;5163240;27;20556;-87
2022/01/07 01:03:11;;;;;;;6.53;3.17;;;5.40;66.80;;;;;;5148044;27;20174;-82
2022/01/07 01:05:37;;;;;;;9.00;2.90;;;5.40;67.60;;;;;;5180250;27;20190;-78
2022/01/07 01:08:03;;;;;;;6.50;2.77;;;5.50;69.00;;;;;;5162841;27;20229;-81
2022/01/07 01:10:29;;;;;;;5.73;2.90;;;5.40;71.80;;;;;;5156738;27;20197;-82
2022/01/07 01:13:01;;;;;;;7.67;2.93;;;5.40;75.50;;;;;;5172478;27;20142;-79
2022/01/07 01:15:43;;;;;;;5.80;2.70;;;5.30;79.60;;;;;;5168690;27;20278;-90
2022/01/07 01:18:11;;;;;;;7.70;3.10;;;5.30;82.50;;;;;;5163700;27;20208;-79
2022/01/07 01:20:37;;;;;;;8.00;3.77;;;5.30;85.20;;;;;;5160506;27;20138;-78
2022/01/07 01:23:03;;;;;;;6.27;3.20;;;5.20;86.20;;;;;;5179338;27;20174;-81
2022/01/07 01:25:31;;;;;;;6.23;3.17;;;5.20;88.60;;;;;;5172072;27;20158;-80
2022/01/07 01:27:59;;;;;;;10.20;3.77;;;5.20;90.00;;;;;;5165171;27;20162;-88
2022/01/07 01:30:31;;;;;;;8.57;3.57;;;5.30;90.50;;;;;;5125646;27;20170;-89
2022/01/07 01:32:57;;;;;;;11.97;4.00;;;5.20;91.90;;;;;;5160075;27;20158;-79
2022/01/07 01:35:23;;;;;;;6.93;3.33;;;5.30;92.60;;;;;;5162251;27;20537;-82
2022/01/07 01:37:49;;;;;;;9.33;3.97;;;5.10;93.70;;;;;;5147525;27;20209;-77
2022/01/07 01:40:17;;;;;;;9.50;3.70;;;5.00;94.30;;;;;;5181221;27;20157;-78
2022/01/07 01:42:44;;;;;;;9.37;4.07;;;5.00;95.10;;;;;;5178323;27;20222;-83
2022/01/07 01:45:11;;;;;;;10.30;3.60;;;4.90;96.10;;;;;;5177262;27;20158;-78
2022/01/07 01:47:39;;;;;;;10.63;4.53;;;4.90;96.70;;;;;;5169649;27;20155;-85
2022/01/07 01:50:13;;;;;;;10.23;4.07;;;4.90;97.90;;;;;;5149330;27;20182;-88
2022/01/07 01:52:49;;;;;;;12.37;4.10;;;4.80;98.60;;;;;;5165977;27;20162;-77
2022/01/07 01:55:17;;;;;;;8.80;4.63;;;4.90;99.40;;;;;;5179303;27;20173;-79
2022/01/07 01:57:44;;;;;;;5.93;3.63;;;4.70;99.90;;;;;;5157827;27;20256;-80
2022/01/07 02:00:16;;;;;;;9.60;4.97;;;4.70;99.90;;;;;;5154062;27;20166;-85
2022/01/07 02:02:44;;;;;;;6.57;4.50;;;4.70;99.90;;;;;;5169256;27;20233;-78
2022/01/07 02:05:10;;;;;;;11.70;4.30;;;4.70;99.90;;;;;;5175430;27;20177;-77
2022/01/07 02:07:40;;;;;;;13.00;4.97;;;4.60;99.90;;;;;;5152596;27;20174;-88
2022/01/07 02:10:09;;;;;;;11.73;5.90;;;4.60;99.90;;;;;;5151636;27;20193;-78
2022/01/07 02:12:42;;;;;;;10.17;4.37;;;4.60;99.90;;;;;;5176257;27;20161;-79
2022/01/07 02:15:09;;;;;;;9.07;4.67;;;4.50;99.90;;;;;;5178141;27;20141;-77
2022/01/07 02:17:43;;;;;;;9.87;5.63;;;4.50;99.90;;;;;;5173932;27;20178;-77
2022/01/07 02:20:09;;;;;;;8.67;4.17;;;4.60;99.90;;;;;;5148858;27;20178;-83
2022/01/07 02:22:35;;;;;;;10.10;5.23;;;4.50;99.90;;;;;;5166054;27;20162;-85
2022/01/07 02:25:01;;;;;;;9.53;4.43;;;4.50;99.90;;;;;;5165812;27;20217;-78
2022/01/07 02:27:52;;;;;;;10.47;5.23;;;4.50;99.90;;;;;;5166186;27;20705;-90
2022/01/07 02:30:25;;;;;;;8.53;4.60;;;4.50;99.90;;;;;;5159817;27;20214;-88
2022/01/07 02:32:54;;;;;;;8.83;4.93;;;4.50;99.90;;;;;;5143742;27;20169;-89
2022/01/07 02:35:24;;;;;;;10.97;5.70;;;4.50;99.90;;;;;;5161990;27;20153;-88
2022/01/07 02:37:50;;;;;;;9.67;4.93;;;4.50;99.90;;;;;;5162305;27;20189;-79
2022/01/07 02:40:16;;;;;;;8.97;5.57;;;4.40;99.90;;;;;;5161928;27;20216;-89
2022/01/07 02:42:42;;;;;;;8.00;5.03;;;4.40;99.90;;;;;;5144609;27;20161;-86
2022/01/07 02:45:10;;;;;;;9.73;5.40;;;4.40;99.90;;;;;;5161025;27;20165;-88
2022/01/07 02:47:50;;;;;;;8.73;4.80;;;4.40;99.90;;;;;;5144095;27;20170;-87
2022/01/07 02:50:18;;;;;;;9.23;5.77;;;4.40;99.90;;;;;;5149269;27;20256;-88
2022/01/07 02:52:44;;;;;;;10.73;5.70;;;4.40;99.90;;;;;;5145308;27;20203;-84
2022/01/07 02:55:11;;;;;;;7.30;4.67;;;4.40;99.90;;;;;;5170760;27;20161;-77
2022/01/07 02:57:37;;;;;;;11.13;5.43;;;4.50;99.90;;;;;;5174886;27;20178;-78
2022/01/07 03:00:05;;;;;;;9.37;5.50;;;4.50;99.90;;;;;;5160706;27;20233;-79
2022/01/07 03:02:30;;;;;;;8.47;5.63;;;4.50;99.90;;;;;;5179134;27;20188;-77
2022/01/07 03:04:56;;;;;;;13.13;5.17;;;4.50;99.90;;;;;;5175923;27;20633;-86
2022/01/07 03:07:29;;;;;;;10.67;5.50;;;4.50;99.90;;;;;;5171951;27;20161;-79
2022/01/07 03:10:33;;;;;;;9.73;5.27;;;4.50;99.90;;;;;;5171663;27;20198;-81
2022/01/07 03:13:17;;;;;;;8.87;4.97;;;4.60;99.90;;;;;;5147951;27;20177;-89
2022/01/07 03:16:12;;;;;;;8.27;5.00;;;4.60;99.90;;;;;;5170375;27;20154;-78
2022/01/07 03:18:42;;;;;;;8.00;4.87;;;4.60;99.90;;;;;;5160292;27;20213;-84
2022/01/07 03:21:08;;;;;;;8.90;5.00;;;4.60;99.90;;;;;;5175813;27;20157;-81
2022/01/07 03:23:40;;;;;;;8.30;5.23;;;4.60;99.90;;;;;;5161635;27;20580;-89
2022/01/07 03:26:14;;;;;;;9.10;5.17;;;4.60;99.90;;;;;;5140290;27;20169;-82
2022/01/07 03:28:40;;;;;;;8.97;4.97;;;4.60;99.90;;;;;;5146098;27;20165;-82
2022/01/07 03:31:06;;;;;;;11.10;4.97;;;4.60;99.90;;;;;;5173376;27;20188;-83
2022/01/07 03:33:32;;;;;;;9.33;6.10;;;4.60;99.90;;;;;;5173059;27;20165;-85
2022/01/07 03:35:58;;;;;;;8.23;5.17;;;4.80;99.90;;;;;;5178757;27;20158;-82
2022/01/07 03:38:24;;;;;;;8.87;5.53;;;4.60;99.90;;;;;;5179005;27;20191;-83
2022/01/07 03:40:49;;;;;;;9.03;5.63;;;4.60;99.90;;;;;;5152022;27;20552;-88
2022/01/07 03:43:16;;;;;;;9.87;5.40;;;4.60;99.90;;;;;;5142861;27;20172;-89
2022/01/07 03:45:42;;;;;;;8.00;5.60;;;4.70;99.90;;;;;;5162245;27;20187;-88
2022/01/07 03:48:08;;;;;;;11.27;5.63;;;4.60;99.90;;;;;;5164716;27;20169;-88
2022/01/07 03:50:34;;;;;;;10.20;5.30;;;4.60;99.90;;;;;;5144236;27;20158;-88
2022/01/07 03:53:01;;;;;;;8.83;6.30;;;4.60;99.90;;;;;;5162717;27;20249;-88
2022/01/07 03:55:29;;;;;;;7.33;5.37;;;4.60;99.90;;;;;;5144497;27;20158;-87
2022/01/07 03:57:57;;;;;;;11.23;6.30;;;4.60;99.90;;;;;;5164954;27;20198;-86
2022/01/07 04:00:34;;;;;;;10.33;6.50;;;4.60;99.90;;;;;;5144049;27;20205;-89
2022/01/07 04:03:02;;;;;;;10.50;6.57;;;4.60;99.90;;;;;;5162806;27;20172;-82
2022/01/07 04:05:28;;;;;;;12.13;6.37;;;4.80;99.90;;;;;;5162034;27;20169;-86
2022/01/07 04:07:53;;;;;;;10.93;6.40;;;4.60;99.90;;;;;;5154234;27;20192;-79
2022/01/07 04:10:20;;;;;;;10.57;6.70;;;4.60;99.90;;;;;;5181046;27;20181;-78
2022/01/07 04:12:45;;;;;;;11.53;6.70;;;4.70;99.90;;;;;;5176396;27;20154;-79
2022/01/07 04:15:18;;;;;;;11.47;7.20;;;4.60;99.90;;;;;;5148901;27;20621;-90
2022/01/07 04:17:50;;;;;;;13.43;7.47;;;4.70;99.90;;;;;;5165489;27;20194;-78
2022/01/07 04:20:18;;;;;;;11.90;7.67;;;4.80;99.90;;;;;;5180883;27;20162;-79
2022/01/07 04:22:44;;;;;;;14.50;7.93;;;4.70;99.90;;;;;;5180106;27;20171;-79
2022/01/07 04:25:13;;;;;;;11.47;6.93;;;4.80;99.90;;;;;;5178842;27;20226;-80
2022/01/07 04:31:09;;;;;;;14.77;6.33;;;4.90;99.90;;;;;;5177156;27;20145;-77
2022/01/07 04:36:58;;;;;;;12.27;7.10;;;4.90;99.90;;;;;;5167573;27;20164;-88
2022/01/07 04:39:23;;;;;;;10.73;7.47;;;5.00;99.90;;;;;;5165466;27;20213;-85
2022/01/07 04:41:53;;;;;;;10.63;7.40;;;4.90;99.90;;;;;;5175261;27;20197;-78
2022/01/07 04:44:21;;;;;;;11.63;7.60;;;4.90;99.90;;;;;;5161221;27;20173;-80
2022/01/07 04:46:47;;;;;;;11.40;7.47;;;4.80;99.90;;;;;;5174024;27;20161;-79
2022/01/07 04:49:15;;;;;;;10.57;7.17;;;5.00;99.90;;;;;;5149354;27;20177;-80
2022/01/07 04:51:54;;;;;;;11.93;7.17;;;5.00;99.90;;;;;;5174526;27;20218;-77
2022/01/07 04:54:20;;;;;;;12.73;8.00;;;5.10;99.90;;;;;;5156960;27;20169;-87
2022/01/07 04:56:46;;;;;;;13.30;7.63;;;5.00;99.90;;;;;;5170314;27;20153;-78
2022/01/07 04:59:36;;;;;;;12.83;7.73;;;5.10;99.90;;;;;;5148749;27;20216;-85
2022/01/07 05:02:07;;;;;;;10.90;6.93;;;5.20;99.90;;;;;;5164241;27;20158;-85
2022/01/07 05:04:33;;;;;;;14.30;7.73;;;5.10;99.90;;;;;;5126470;27;20177;-88
2022/01/07 05:06:59;;;;;;;14.40;7.87;;;5.10;99.90;;;;;;5143639;27;20195;-78
2022/01/07 05:09:24;;;;;;;14.87;8.13;;;5.10;99.90;;;;;;5160251;27;20560;-78
2022/01/07 05:11:52;;;;;;;14.10;8.60;;;5.10;99.90;;;;;;5162252;27;20166;-82
2022/01/07 05:14:19;;;;;;;14.00;8.40;;;5.10;99.90;;;;;;5144983;27;20279;-84
2022/01/07 05:16:45;;;;;;;12.87;7.43;;;5.10;99.90;;;;;;5161980;27;20170;-83
2022/01/07 05:19:11;;;;;;;14.43;7.90;;;5.10;99.90;;;;;;5161591;27;20326;-88
2022/01/07 05:21:38;;;;;;;14.37;8.40;;;5.20;99.90;;;;;;5145564;27;20176;-87
2022/01/07 05:24:05;;;;;;;15.37;8.10;;;5.30;99.90;;;;;;5163332;27;20170;-79
2022/01/07 05:26:32;;;;;;;15.27;8.10;;;5.30;99.90;;;;;;5144319;27;20173;-85
2022/01/07 05:28:57;;;;;;;13.03;8.03;;;5.20;99.90;;;;;;5167769;27;20173;-83
2022/01/07 05:31:24;;;;;;;13.57;7.27;;;5.20;99.90;;;;;;5180296;27;20166;-81
2022/01/07 05:33:53;;;;;;;13.53;7.70;;;5.20;99.90;;;;;;5174267;27;20162;-85
2022/01/07 05:36:21;;;;;;;11.17;7.70;;;5.30;99.90;;;;;;5170165;27;20150;-78
2022/01/07 05:38:50;;;;;;;12.60;7.30;;;5.30;99.90;;;;;;5148022;27;20220;-81
2022/01/07 05:41:16;;;;;;;13.63;6.87;;;5.30;99.90;;;;;;5163314;27;20158;-90
2022/01/07 05:43:42;;;;;;;12.63;7.57;;;5.30;99.90;;;;;;5143467;27;20704;-89
2022/01/07 05:46:10;;;;;;;12.27;7.47;;;5.40;99.90;;;;;;5167366;27;20184;-77
2022/01/07 05:48:37;;;;;;;12.10;7.20;;;5.40;99.90;;;;;;5158260;27;20164;-79
2022/01/07 05:51:03;;;;;;;13.83;7.07;;;5.40;99.90;;;;;;5174507;27;20315;-77
2022/01/07 05:53:51;;;;;;;11.33;6.73;;;5.40;99.90;;;;;;5156451;27;20170;-81
2022/01/07 05:56:22;;;;;;;10.03;6.10;;;5.40;99.90;;;;;;5158591;27;20173;-79
2022/01/07 05:58:49;;;;;;;10.67;6.17;;;5.40;99.90;;;;;;5174415;27;20216;-78
2022/01/07 06:01:15;;;;;;;11.77;6.77;;;5.40;99.90;;;;;;5171311;27;20169;-84
2022/01/07 06:03:46;;;;;;;9.93;6.93;;;5.50;99.90;;;;;;5165155;27;20166;-88
2022/01/07 06:06:19;;;;;;;11.50;6.77;;;5.40;99.90;;;;;;5164537;27;20185;-87
2022/01/07 06:08:45;;;;;;;13.37;6.60;;;5.40;99.90;;;;;;5161743;27;20732;-88
2022/01/07 06:11:45;;;;;;;13.47;6.93;;;5.40;99.90;;;;;;5146403;27;20190;-87
2022/01/07 06:14:11;;;;;;;9.07;6.40;;;5.50;99.90;;;;;;5170645;27;20617;-90
2022/01/07 06:16:37;;;;;;;10.70;7.00;;;5.40;99.90;;;;;;5158137;27;20177;-88
2022/01/07 06:19:02;;;;;;;11.90;7.03;;;5.50;99.90;;;;;;5140642;27;20683;-85
2022/01/07 06:21:30;;;;;;;11.33;7.17;;;5.60;99.90;;;;;;5159671;27;20170;-80
2022/01/07 06:23:56;;;;;;;10.80;6.90;;;5.50;99.90;;;;;;5141652;27;20165;-79
2022/01/07 06:26:24;;;;;;;10.80;6.90;;;5.60;99.90;;;;;;5159922;27;20161;-91
2022/01/07 06:28:49;;;;;;;11.50;6.27;;;5.50;99.90;;;;;;5168557;27;20636;-78
2022/01/07 06:31:15;;;;;;;12.73;6.60;;;5.50;99.90;;;;;;5159558;27;20618;-89
2022/01/07 06:33:41;;;;;;;10.90;5.90;;;5.60;99.90;;;;;;5158418;27;20252;-81
2022/01/07 06:36:06;;;;;;;11.73;6.50;;;5.70;99.90;;;;;;5163855;27;20507;-79
2022/01/07 06:38:32;;;;;;;12.53;6.43;;;5.60;99.90;;;;;;5164650;27;20209;-86
2022/01/07 06:40:59;;;;;;;9.80;5.63;;;5.70;99.90;;;;;;5158726;27;20169;-77
2022/01/07 06:43:26;;;;;;;9.50;6.37;;;5.70;99.90;;;;;;5157862;27;20248;-78
2022/01/07 06:45:51;;;;;;;12.03;6.53;;;5.70;99.90;;;;;;5159792;27;20179;-76
2022/01/07 06:48:18;;;;;;;9.90;5.20;;;5.80;99.90;;;;;;5160643;27;20158;-82
2022/01/07 06:50:44;;;;;;;10.23;6.10;;;5.80;99.90;;;;;;5177784;27;20185;-77
2022/01/07 06:53:16;;;;;;;8.47;5.57;;;5.80;99.90;;;;;;5177534;27;20162;-78
2022/01/07 06:55:45;;;;;;;9.97;5.73;;;5.80;99.90;;;;;;5175252;27;20141;-78
2022/01/07 06:58:11;;;;;;;8.37;4.90;;;5.90;99.90;;;;;;5174603;27;20245;-78
2022/01/07 07:00:41;;;;;;;9.20;4.97;;;5.90;99.90;;;;;;5162969;27;20160;-85
2022/01/07 07:03:16;;;;;;;9.30;5.53;;;6.00;99.90;;;;;;5168508;27;20197;-78
2022/01/07 07:09:17;;;;;;;9.80;4.90;;;5.80;99.90;;;;;;5171673;27;20211;-80
2022/01/07 07:12:08;;;;;;;7.17;4.60;;;5.90;99.90;;;;;;5152559;27;20209;-77
2022/01/07 07:14:39;;;;;;;8.23;4.87;;;5.90;99.90;;;;;;5168783;27;20154;-79
2022/01/07 07:17:12;;;;;;;6.87;5.20;;;5.90;99.90;;;;;;5169794;27;20628;-79
2022/01/07 07:19:56;;;;;;;9.27;4.93;;;5.90;99.90;;;;;;5174218;27;20245;-76
2022/01/07 07:22:22;;;;;;;6.87;4.77;;;5.90;99.90;;;;;;5176249;27;20177;-77
2022/01/07 07:24:51;;;;;;;9.63;4.90;;;5.90;99.90;;;;;;5160424;27;20169;-82
2022/01/07 07:28:01;;;;;;;7.27;4.57;;;5.90;99.90;;;;;;5173550;27;20539;-78
2022/01/07 07:30:38;;;;;;;9.33;4.80;;;5.90;99.90;;;;;;5170199;27;20153;-77
2022/01/07 07:39:11;;;;;;;9.20;5.50;;;5.90;99.90;;;;;;5166412;27;20211;-77
2022/01/07 07:41:40;;;;;;;8.27;4.47;;;6.00;99.90;;;;;;5161992;27;20241;-78
2022/01/07 07:44:09;;;;;;;8.57;4.73;;;6.00;99.90;;;;;;5161549;27;20625;-82
2022/01/07 07:46:37;;;;;;;9.60;4.53;;;6.00;99.90;;;;;;5159073;27;20168;-83
2022/01/07 07:49:13;;;;;;;9.03;4.80;;;6.00;99.90;;;;;;5139244;27;20200;-81
2022/01/07 07:51:39;;;;;;;10.20;4.63;;;6.00;99.90;;;;;;5159815;27;20502;-85
2022/01/07 07:54:08;;;;;;;7.30;4.47;;;6.00;99.90;;;;;;5162198;27;20188;-84
2022/01/07 07:56:34;;;;;;;7.90;5.70;;;6.00;99.90;;;;;;5135720;27;20176;-91
2022/01/07 07:59:04;;;;;;;10.70;4.30;;;6.10;99.90;;;;;;5151972;27;20673;-82
2022/01/07 08:01:32;;;;;;;8.47;5.10;;;6.00;99.90;;;;;;5164391;27;20169;-81
2022/01/07 08:04:01;;;;;;;9.30;4.93;;;6.10;99.90;;;;;;5160232;27;20530;-85
2022/01/07 08:06:27;;;;;;;8.17;5.27;;;6.20;99.90;;;;;;5158864;27;20187;-84
2022/01/07 08:08:53;;;;;;;7.03;4.50;;;6.20;99.90;;;;;;5158581;27;20204;-87
2022/01/07 08:11:18;;;;;;;10.93;5.53;;;6.20;99.90;;;;;;5158916;27;20178;-79
2022/01/07 08:16:30;;;;;;;7.80;5.00;;;6.20;99.90;;;;;;5176342;27;20203;-80
2022/01/07 08:18:58;;;;;;;7.50;4.17;;;6.20;99.90;;;;;;5156920;27;20208;-78
2022/01/07 08:21:29;;;;;;;9.10;4.67;;;6.20;99.90;;;;;;5174672;27;20146;-79
2022/01/07 08:24:47;;;;;;;7.03;4.30;;;6.10;99.90;;;;;;5170743;27;20242;-79
2022/01/07 08:27:14;;;;;;;6.57;4.57;;;6.10;99.90;;;;;;5166906;27;20207;-82
2022/01/07 08:29:51;;;;;;;8.77;4.23;;;6.10;99.90;;;;;;5153625;27;20165;-84
2022/01/07 08:35:39;;;;;;;7.77;3.73;;;6.20;99.90;;;;;;5162585;27;20566;-89
2022/01/07 08:38:34;;;;;;;7.87;4.27;;;6.20;99.90;;;;;;5161213;27;20189;-84
2022/01/07 08:41:05;;;;;;;5.60;3.77;;;6.20;99.90;;;;;;5155148;27;20709;-83
2022/01/07 08:43:31;;;;;;;8.17;3.67;;;6.30;99.90;;;;;;5141540;27;20177;-81
2022/01/07 08:45:57;;;;;;;5.00;3.33;;;6.30;99.90;;;;;;5159201;27;20554;-83
2022/01/07 08:48:26;;;;;;;4.33;3.40;;;6.20;99.90;;;;;;5163178;27;20178;-81
2022/01/07 08:50:52;;;;;;;7.83;3.73;;;6.30;99.90;;;;;;5133067;27;20661;-81
2022/01/07 08:53:18;;;;;;;6.57;3.33;;;6.30;99.90;;;;;;5151692;27;20345;-88
2022/01/07 08:55:44;;;;;;;6.47;3.30;;;6.30;99.90;;;;;;5157830;27;20169;-82
2022/01/07 08:58:10;;;;;;;7.43;3.67;;;6.30;99.90;;;;;;5140315;27;20201;-83
2022/01/07 09:00:36;;;;;;;5.90;3.00;;;6.30;99.90;;;;;;5146807;27;20230;-88
2022/01/07 09:03:02;;;;;;;6.87;3.40;;;6.30;99.90;;;;;;5163616;27;20169;-81
2022/01/07 09:05:28;;;;;;;8.73;4.23;;;6.40;99.90;;;;;;5159771;27;20165;-80
2022/01/07 09:07:54;;;;;;;6.27;3.37;;;6.40;99.90;;;;;;5160829;27;20173;-80
2022/01/07 09:10:23;;;;;;;6.13;3.73;;;6.40;99.90;;;;;;5159106;27;20193;-81
2022/01/07 09:12:49;;;;;;;7.83;3.37;;;6.50;99.90;;;;;;5159546;27;20164;-81
2022/01/07 09:15:15;;;;;;;7.93;3.73;;;6.50;99.90;;;;;;5163805;27;20221;-81
2022/01/07 09:17:41;;;;;;;9.27;4.17;;;6.50;99.90;;;;;;5160459;27;20177;-80
2022/01/07 09:20:08;;;;;;;9.00;3.70;;;6.50;99.90;;;;;;5160905;27;20162;-80
2022/01/07 09:22:37;;;;;;;8.33;4.20;;;6.40;99.90;;;;;;5142016;27;20172;-81
2022/01/07 09:25:06;;;;;;;9.43;3.80;;;6.40;99.90;;;;;;5142250;27;20174;-79
2022/01/07 09:27:34;;;;;;;7.70;3.70;;;6.40;99.90;;;;;;5161283;27;20166;-80
2022/01/07 09:30:02;;;;;;;8.00;3.97;;;6.40;99.90;;;;;;5160650;27;20270;-80
2022/01/07 09:32:30;;;;;;;7.57;4.00;;;6.40;99.90;;;;;;5168308;27;20207;-80
2022/01/07 09:34:57;;;;;;;9.37;4.10;;;6.40;99.90;;;;;;5158889;27;20532;-80
2022/01/07 09:37:23;;;;;;;6.50;3.90;;;6.50;99.90;;;;;;5157406;27;20158;-80
2022/01/07 09:39:48;;;;;;;7.90;3.57;;;6.60;99.90;;;;;;5168386;27;20326;-78
2022/01/07 09:42:15;;;;;;;6.13;3.80;;;6.50;99.90;;;;;;5172065;27;20213;-78
2022/01/07 09:44:59;;;;;;;7.90;4.17;;;6.60;99.90;;;;;;5142937;27;20204;-80
2022/01/07 09:47:27;;;;;;;9.87;4.10;;;6.50;99.90;;;;;;5166694;27;20616;-79
2022/01/07 09:49:57;;;;;;;10.30;4.30;;;6.50;99.90;;;;;;5181035;27;20267;-78
2022/01/07 09:52:27;;;;;;;10.80;4.20;;;6.50;99.90;;;;;;5162279;27;20655;-80
2022/01/07 09:54:54;;;;;;;7.50;4.13;;;6.60;99.90;;;;;;5161853;27;20240;-79
2022/01/07 09:57:20;;;;;;;8.37;3.97;;;6.50;99.90;;;;;;5161089;27;20162;-79
2022/01/07 09:59:53;;;;;;;11.70;4.57;;;6.60;99.90;;;;;;5141649;27;20687;-79
2022/01/07 10:02:18;;;;;;;9.23;5.20;;;6.50;99.90;;;;;;5159216;27;20169;-80
2022/01/07 10:04:45;;;;;;;11.17;4.90;;;6.50;99.90;;;;;;5140501;27;20185;-80
2022/01/07 10:07:29;;;;;;;9.33;4.13;;;6.50;99.90;;;;;;5151682;27;20166;-79
2022/01/07 10:10:01;;;;;;;10.53;4.33;;;6.50;99.90;;;;;;5156056;27;20213;-80
2022/01/07 10:12:28;;;;;;;13.53;5.13;;;6.70;99.90;;;;;;5172162;27;20561;-79
2022/01/07 10:15:13;;;;;;;8.60;4.53;;;6.80;99.90;;;;;;5164031;27;20613;-78
2022/01/07 10:18:05;;;;;;;12.03;4.40;;;6.90;99.90;;;;;;5142464;27;20197;-79
2022/01/07 10:20:48;;;;;;;8.33;3.90;;;6.90;99.90;;;;;;5165575;27;20158;-78
2022/01/07 10:23:24;;;;;;;7.53;3.77;;;6.80;99.90;;;;;;5176856;27;20158;-80
2022/01/07 10:25:55;;;;;;;8.07;3.90;;;6.70;99.90;;;;;;5140701;27;20253;-81
2022/01/07 10:28:22;;;;;;;8.83;3.83;;;6.80;99.90;;;;;;5165063;27;20229;-81
2022/01/07 10:31:00;;;;;;;8.23;3.93;;;6.90;99.90;;;;;;5126745;27;20174;-82
2022/01/07 10:33:42;;;;;;;7.47;3.27;;;7.00;99.90;;;;;;5145977;27;20162;-83
2022/01/07 10:36:07;;;;;;;5.50;3.33;;;7.00;99.20;;;;;;5135582;27;20174;-82
2022/01/07 10:38:52;;;;;;;8.27;3.33;;;7.10;98.90;;;;;;5158470;27;20205;-87
2022/01/07 10:41:23;;;;;;;8.07;3.70;;;7.00;98.40;;;;;;5147249;27;20201;-79
2022/01/07 10:43:51;;;;;;;8.73;3.77;;;7.00;98.50;;;;;;5121268;27;20561;-79
2022/01/07 10:46:27;;;;;;;10.97;3.97;;;7.10;98.80;;;;;;5133870;27;20685;-80
2022/01/07 10:49:05;;;;;;;19.23;13.20;;;6.90;98.60;;;;;;5145244;27;20169;-79
2022/01/07 10:51:41;;;;;;;10.67;3.90;;;6.80;99.20;;;;;;5151555;27;20162;-80
2022/01/07 10:54:10;;;;;;;12.43;4.37;;;6.90;99.30;;;;;;5170886;27;20173;-80
2022/01/07 10:56:43;;;;;;;6.13;3.03;;;6.80;99.10;;;;;;5162223;27;20162;-83
2022/01/07 10:59:10;;;;;;;7.50;3.10;;;6.80;98.90;;;;;;5139435;27;20690;-81
2022/01/07 11:01:56;;;;;;;7.80;3.13;;;6.80;99.80;;;;;;5140713;27;20324;-80
2022/01/07 11:04:26;;;;;;;9.47;3.23;;;6.60;99.90;;;;;;5142063;27;20278;-78
2022/01/07 11:06:56;;;;;;;4.73;2.97;;;6.60;99.90;;;;;;5159613;27;20161;-79
2022/01/07 11:09:22;;;;;;;6.67;3.40;;;6.50;99.90;;;;;;5163095;27;20279;-80
2022/01/07 11:12:25;;;;;;;6.47;2.30;;;6.40;99.90;;;;;;5166609;27;20185;-88
2022/01/07 11:18:16;;;;;;;4.33;2.60;;;6.20;99.90;;;;;;5167050;27;20208;-87
2022/01/07 11:20:45;;;;;;;9.43;3.40;;;6.20;99.90;;;;;;5151328;27;20169;-85
2022/01/07 11:23:10;;;;;;;10.10;3.53;;;6.30;99.90;;;;;;5168795;27;20189;-84
2022/01/07 11:25:58;;;;;;;6.90;3.60;;;6.10;99.90;;;;;;5173913;27;20138;-83
2022/01/07 11:28:24;;;;;;;8.03;3.57;;;6.10;99.90;;;;;;5159171;27;20198;-82
2022/01/07 11:31:25;;;;;;;7.27;3.47;;;6.20;99.90;;;;;;5174891;27;20174;-84
2022/01/07 11:34:18;;;;;;;7.40;3.50;;;6.40;99.90;;;;;;5177825;27;20165;-82
2022/01/07 11:36:45;;;;;;;7.23;3.40;;;6.40;99.90;;;;;;5160433;27;20191;-83
2022/01/07 11:39:21;;;;;;;9.27;3.20;;;6.40;99.90;;;;;;5158287;27;20181;-79
2022/01/07 11:41:55;;;;;;;8.17;3.37;;;6.40;99.90;;;;;;5174186;27;20204;-79
2022/01/07 11:44:44;;;;;;;5.17;3.10;;;6.40;99.90;;;;;;5169758;27;20154;-80
2022/01/07 11:47:24;;;;;;;8.07;4.00;;;6.40;99.90;;;;;;5174373;27;20244;-79
2022/01/07 11:50:07;;;;;;;6.13;3.97;;;6.50;99.90;;;;;;5158818;27;20172;-80
2022/01/07 11:52:57;;;;;;;7.13;3.63;;;6.50;99.90;;;;;;5159792;27;20165;-81
2022/01/07 11:55:33;;;;;;;8.30;5.53;;;6.50;99.90;;;;;;5179368;27;20158;-80
2022/01/07 11:58:06;;;;;;;5.13;3.77;;;6.60;99.90;;;;;;5140378;27;20198;-84
2022/01/07 12:04:13;;;;;;;6.20;3.17;;;6.70;99.90;;;;;;5178525;27;20229;-81
2022/01/07 12:07:05;;;;;;;8.70;3.93;;;6.60;99.90;;;;;;5157762;27;20201;-82
2022/01/07 12:09:52;;;;;;;7.17;3.90;;;6.70;99.90;;;;;;5172793;27;20213;-79
2022/01/07 12:12:47;;;;;;;9.10;4.77;;;6.80;99.90;;;;;;5165382;27;20166;-79
2022/01/07 12:15:16;;;;;;;11.77;4.43;;;6.70;99.90;;;;;;5164051;27;20168;-81
2022/01/07 12:18:09;;;;;;;8.50;6.73;;;6.80;99.90;;;;;;5142987;27;20194;-85
2022/01/07 12:21:13;;;;;;;7.20;4.40;;;6.70;99.90;;;;;;5154501;27;20170;-87
2022/01/07 12:24:05;;;;;;;8.73;4.00;;;6.70;99.90;;;;;;5154331;27;20169;-83
2022/01/07 12:26:32;;;;;;;7.23;2.60;;;6.80;99.90;;;;;;5148998;27;20240;-86
2022/01/07 12:28:59;;;;;;;6.03;2.50;;;6.70;99.90;;;;;;5150370;27;20185;-81
2022/01/07 12:31:26;;;;;;;3.63;2.37;;;6.70;99.90;;;;;;5168764;27;20186;-83
2022/01/07 12:33:56;;;;;;;6.20;2.80;;;6.70;99.90;;;;;;5169400;27;20526;-80
2022/01/07 12:36:34;;;;;;;5.17;2.17;;;6.80;99.90;;;;;;5152373;27;20166;-86
2022/01/07 12:39:05;;;;;;;2.20;1.30;;;6.70;99.90;;;;;;5176111;27;20237;-80
2022/01/07 12:41:51;;;;;;;3.67;1.70;;;6.80;98.70;;;;;;5157778;27;20181;-83
2022/01/07 12:44:16;;;;;;;4.87;2.07;;;6.60;99.00;;;;;;5155821;27;20572;-84
2022/01/07 12:47:00;;;;;;;4.47;2.00;;;6.60;98.90;;;;;;5174287;27;20225;-88
2022/01/07 12:49:47;;;;;;;4.07;1.60;;;6.60;98.90;;;;;;5178818;27;20221;-89
2022/01/07 12:52:24;;;;;;;4.27;1.50;;;6.50;99.20;;;;;;5178679;27;20173;-85
2022/01/07 12:54:57;;;;;;;4.53;1.57;;;6.50;98.40;;;;;;5176188;27;20176;-80
2022/01/07 12:57:46;;;;;;;4.97;1.57;;;6.50;98.00;;;;;;5179689;27;20154;-81
2022/01/07 13:00:35;;;;;;;3.47;1.40;;;6.50;98.50;;;;;;5178731;27;20231;-82
2022/01/07 13:03:12;;;;;;;4.07;1.30;;;6.50;97.70;;;;;;5181790;27;20226;-82
2022/01/07 13:05:49;;;;;;;2.37;0.87;;;6.40;96.90;;;;;;5178490;27;20157;-78
2022/01/07 13:12:10;;;;;;;1.70;1.00;;;6.30;95.10;;;;;;5180976;27;20216;-84
2022/01/07 13:15:08;;;;;;;3.00;1.27;;;6.40;94.80;;;;;;5177801;27;20182;-88
2022/01/07 13:17:57;;;;;;;5.90;1.63;;;6.40;95.50;;;;;;5175164;27;20158;-81
2022/01/07 13:20:47;;;;;;;2.27;1.00;;;6.50;96.50;;;;;;5176931;27;20184;-82
2022/01/07 13:23:18;;;;;;;3.77;1.10;;;6.30;96.50;;;;;;5158663;27;20186;-84
2022/01/07 13:25:57;;;;;;;1.80;1.00;;;6.30;96.00;;;;;;5158586;27;20214;-80
2022/01/07 13:28:52;;;;;;;2.50;1.07;;;6.30;95.80;;;;;;5172796;27;20174;-81
2022/01/07 13:31:36;;;;;;;3.30;1.00;;;6.20;95.30;;;;;;5174925;27;20173;-84
2022/01/07 13:34:06;;;;;;;6.13;2.17;;;6.10;96.00;;;;;;5161932;27;20156;-80
2022/01/07 13:36:43;;;;;;;9.03;2.67;;;6.10;96.30;;;;;;5162032;27;20154;-79
2022/01/07 13:39:18;;;;;;;1.47;1.10;;;6.20;97.00;;;;;;5176160;27;20189;-79
2022/01/07 13:42:03;;;;;;;1.27;0.80;;;6.20;96.60;;;;;;5170096;27;20153;-79
2022/01/07 13:44:50;;;;;;;2.73;0.90;;;6.20;96.30;;;;;;5169226;27;20168;-79
2022/01/07 13:47:37;;;;;;;3.07;1.27;;;6.20;96.50;;;;;;5171258;27;20157;-80
2022/01/07 13:50:29;;;;;;;2.10;1.00;;;6.10;97.00;;;;;;5154554;27;20169;-79